createdAt,value
2018-12-09T00:00:43.387Z,0.00
2018-12-09T00:01:43.431Z,0.00
2018-12-09T00:02:43.464Z,0.00
2018-12-09T00:03:43.499Z,0.00
2018-12-09T00:04:43.538Z,0.00
2018-12-09T00:05:43.577Z,0.00
2018-12-09T00:06:43.621Z,0.00
2018-12-09T00:07:43.651Z,0.00
2018-12-09T00:08:43.690Z,0.00
2018-12-09T00:09:43.736Z,0.00
2018-12-09T00:10:43.778Z,0.00
2018-12-09T00:11:43.803Z,0.00
2018-12-09T00:12:43.846Z,0.00
2018-12-09T00:13:43.889Z,0.00
2018-12-09T00:14:44.101Z,0.00
2018-12-09T00:15:43.957Z,0.00
2018-12-09T00:16:43.990Z,0.00
2018-12-09T00:17:44.031Z,0.00
2018-12-09T00:18:44.067Z,0.00
2018-12-09T00:19:44.109Z,0.00
2018-12-09T00:20:44.142Z,0.00
2018-12-09T00:21:44.181Z,0.00
2018-12-09T00:22:44.300Z,0.00
2018-12-09T00:23:44.262Z,0.00
2018-12-09T00:24:44.292Z,0.00
2018-12-09T00:25:44.330Z,0.00
2018-12-09T00:26:44.369Z,0.00
2018-12-09T00:27:44.409Z,0.00
2018-12-09T00:28:44.447Z,0.00
2018-12-09T00:29:44.479Z,0.00
2018-12-09T00:30:44.625Z,0.00
2018-12-09T00:31:44.555Z,0.00
2018-12-09T00:32:44.592Z,0.00
2018-12-09T00:33:44.631Z,0.00
2018-12-09T00:34:44.821Z,0.00
2018-12-09T00:35:44.705Z,0.00
2018-12-09T00:36:44.744Z,0.00
2018-12-09T00:37:44.782Z,0.00
2018-12-09T00:38:44.820Z,0.00
2018-12-09T00:39:44.858Z,0.00
2018-12-09T00:40:44.897Z,0.00
2018-12-09T00:41:44.937Z,0.00
2018-12-09T00:42:44.972Z,0.00
2018-12-09T00:43:45.006Z,0.00
2018-12-09T00:44:45.054Z,0.00
2018-12-09T00:45:45.086Z,0.00
2018-12-09T00:46:45.124Z,0.00
2018-12-09T00:47:45.161Z,0.00
2018-12-09T00:48:45.197Z,0.00
2018-12-09T00:49:45.235Z,0.00
2018-12-09T00:50:45.272Z,0.00
2018-12-09T00:51:45.310Z,0.00
2018-12-09T00:52:45.360Z,0.00
2018-12-09T00:53:45.391Z,0.00
2018-12-09T00:54:45.425Z,0.00
2018-12-09T00:55:45.460Z,0.00
2018-12-09T00:56:45.499Z,0.00
2018-12-09T00:57:45.540Z,0.00
2018-12-09T00:58:45.577Z,0.00
2018-12-09T00:59:45.612Z,0.00
2018-12-09T01:00:45.653Z,0.00
2018-12-09T01:01:45.689Z,0.00
2018-12-09T01:02:45.727Z,0.00
2018-12-09T01:03:45.765Z,0.00
2018-12-09T01:04:45.801Z,0.00
2018-12-09T01:05:45.843Z,0.00
2018-12-09T01:06:45.879Z,0.00
2018-12-09T01:07:45.918Z,0.00
2018-12-09T01:08:45.953Z,0.00
2018-12-09T01:09:45.994Z,0.00
2018-12-09T01:10:46.032Z,0.00
2018-12-09T01:11:46.077Z,0.00
2018-12-09T01:12:46.107Z,0.00
2018-12-09T01:13:46.146Z,0.00
2018-12-09T01:14:46.184Z,0.00
2018-12-09T01:15:46.220Z,0.00
2018-12-09T01:16:46.263Z,0.00
2018-12-09T01:17:46.298Z,0.00
2018-12-09T01:18:46.335Z,0.00
2018-12-09T01:19:46.373Z,0.00
2018-12-09T01:20:46.414Z,0.00
2018-12-09T01:21:46.457Z,0.00
2018-12-09T01:22:46.488Z,0.00
2018-12-09T01:23:46.532Z,0.00
2018-12-09T01:24:46.564Z,0.00
2018-12-09T01:25:46.607Z,0.00
2018-12-09T01:26:46.645Z,0.00
2018-12-09T01:27:46.686Z,0.00
2018-12-09T01:28:46.716Z,0.00
2018-12-09T01:29:46.757Z,0.00
2018-12-09T01:30:46.793Z,0.00
2018-12-09T01:31:46.939Z,0.00
2018-12-09T01:32:46.868Z,0.00
2018-12-09T01:33:46.910Z,0.00
2018-12-09T01:34:46.963Z,0.00
2018-12-09T01:35:46.982Z,0.00
2018-12-09T01:36:47.073Z,0.00
2018-12-09T01:37:47.059Z,0.00
2018-12-09T01:38:47.199Z,0.00
2018-12-09T01:39:47.132Z,0.00
2018-12-09T01:40:47.172Z,0.00
2018-12-09T01:41:47.210Z,0.00
2018-12-09T01:42:47.248Z,0.00
2018-12-09T01:43:47.285Z,0.00
2018-12-09T01:44:47.324Z,0.00
2018-12-09T01:45:47.365Z,0.00
2018-12-09T01:46:47.481Z,0.00
2018-12-09T01:47:47.447Z,0.00
2018-12-09T01:48:47.478Z,0.00
2018-12-09T01:49:47.515Z,0.00
2018-12-09T01:50:47.557Z,0.00
2018-12-09T01:51:47.590Z,0.00
2018-12-09T01:52:47.628Z,0.00
2018-12-09T01:53:47.669Z,0.00
2018-12-09T01:54:47.707Z,0.00
2018-12-09T01:55:47.743Z,0.00
2018-12-09T01:56:47.837Z,0.00
2018-12-09T01:57:47.820Z,0.00
2018-12-09T01:58:47.856Z,0.00
2018-12-09T01:59:47.898Z,0.00
2018-12-09T02:00:47.931Z,0.00
2018-12-09T02:01:47.970Z,0.00
2018-12-09T02:02:48.008Z,0.00
2018-12-09T02:03:48.044Z,0.00
2018-12-09T02:04:48.085Z,0.00
2018-12-09T02:05:48.121Z,0.00
2018-12-09T02:06:48.159Z,0.00
2018-12-09T02:07:48.196Z,0.00
2018-12-09T02:08:48.333Z,0.00
2018-12-09T02:09:48.277Z,0.00
2018-12-09T02:10:48.313Z,0.00
2018-12-09T02:11:48.350Z,0.00
2018-12-09T02:12:48.383Z,0.00
2018-12-09T02:13:48.540Z,0.00
2018-12-09T02:14:48.460Z,0.00
2018-12-09T02:15:48.495Z,0.00
2018-12-09T02:16:48.533Z,0.00
2018-12-09T02:17:48.571Z,0.00
2018-12-09T02:18:48.608Z,0.00
2018-12-09T02:19:48.645Z,0.00
2018-12-09T02:20:48.688Z,0.00
2018-12-09T02:21:48.720Z,0.00
2018-12-09T02:22:48.757Z,0.00
2018-12-09T02:23:48.794Z,0.00
2018-12-09T02:24:48.832Z,0.00
2018-12-09T02:25:48.885Z,0.00
2018-12-09T02:26:48.906Z,0.00
2018-12-09T02:27:48.945Z,0.00
2018-12-09T02:28:48.983Z,0.00
2018-12-09T02:29:49.019Z,0.00
2018-12-09T02:30:49.056Z,0.00
2018-12-09T02:31:49.097Z,0.00
2018-12-09T02:32:49.130Z,0.00
2018-12-09T02:33:49.169Z,0.00
2018-12-09T02:34:49.206Z,0.00
2018-12-09T02:35:49.243Z,0.00
2018-12-09T02:36:49.279Z,0.00
2018-12-09T02:37:49.317Z,0.00
2018-12-09T02:38:49.357Z,0.00
2018-12-09T02:39:49.391Z,0.00
2018-12-09T02:40:49.429Z,0.00
2018-12-09T02:41:49.469Z,0.00
2018-12-09T02:42:49.502Z,0.00
2018-12-09T02:43:49.541Z,0.00
2018-12-09T02:44:49.579Z,0.00
2018-12-09T02:45:49.616Z,0.00
2018-12-09T02:46:49.654Z,0.00
2018-12-09T02:47:49.688Z,0.00
2018-12-09T02:48:49.797Z,0.00
2018-12-09T02:49:49.766Z,0.00
2018-12-09T02:50:49.802Z,0.00
2018-12-09T02:51:49.839Z,0.00
2018-12-09T02:52:49.877Z,0.00
2018-12-09T02:53:49.916Z,0.00
2018-12-09T02:54:49.964Z,0.00
2018-12-09T02:55:49.987Z,0.00
2018-12-09T02:56:50.025Z,0.00
2018-12-09T02:57:50.073Z,0.00
2018-12-09T02:58:50.102Z,0.00
2018-12-09T02:59:50.136Z,0.00
2018-12-09T03:00:50.334Z,0.00
2018-12-09T03:01:50.230Z,0.00
2018-12-09T03:02:50.250Z,0.00
2018-12-09T03:03:50.287Z,0.00
2018-12-09T03:04:50.323Z,0.00
2018-12-09T03:05:50.473Z,0.00
2018-12-09T03:06:50.400Z,0.00
2018-12-09T03:07:50.434Z,0.00
2018-12-09T03:08:50.473Z,0.00
2018-12-09T03:09:50.519Z,0.00
2018-12-09T03:10:50.546Z,0.00
2018-12-09T03:11:50.583Z,0.00
2018-12-09T03:12:50.620Z,0.00
2018-12-09T03:13:50.675Z,0.00
2018-12-09T03:14:50.702Z,0.00
2018-12-09T03:15:50.735Z,0.00
2018-12-09T03:16:50.770Z,0.00
2018-12-09T03:17:50.807Z,0.00
2018-12-09T03:18:50.855Z,0.00
2018-12-09T03:19:50.885Z,0.00
2018-12-09T03:20:50.921Z,0.00
2018-12-09T03:21:50.958Z,0.00
2018-12-09T03:22:50.995Z,0.00
2018-12-09T03:23:51.032Z,0.00
2018-12-09T03:24:51.075Z,0.00
2018-12-09T03:25:51.108Z,0.00
2018-12-09T03:26:51.143Z,0.00
2018-12-09T03:27:51.229Z,0.00
2018-12-09T03:28:51.230Z,0.00
2018-12-09T03:29:51.253Z,0.00
2018-12-09T03:30:51.302Z,0.00
2018-12-09T03:31:51.329Z,0.00
2018-12-09T03:32:51.530Z,0.00
2018-12-09T03:33:51.403Z,0.00
2018-12-09T03:34:51.438Z,0.00
2018-12-09T03:35:51.475Z,0.00
2018-12-09T03:36:51.512Z,0.00
2018-12-09T03:37:51.549Z,0.00
2018-12-09T03:38:51.587Z,0.00
2018-12-09T03:39:51.624Z,0.00
2018-12-09T03:40:51.667Z,0.00
2018-12-09T03:41:51.696Z,0.00
2018-12-09T03:42:51.732Z,0.00
2018-12-09T03:43:51.770Z,0.00
2018-12-09T03:44:51.805Z,0.00
2018-12-09T03:45:51.855Z,0.00
2018-12-09T03:46:51.882Z,0.00
2018-12-09T03:47:51.917Z,0.00
2018-12-09T03:48:51.960Z,0.00
2018-12-09T03:49:51.999Z,0.00
2018-12-09T03:50:52.028Z,0.00
2018-12-09T03:51:52.063Z,0.00
2018-12-09T03:52:52.110Z,0.00
2018-12-09T03:53:52.137Z,0.00
2018-12-09T03:54:52.175Z,0.00
2018-12-09T03:55:52.214Z,0.00
2018-12-09T03:56:52.249Z,0.00
2018-12-09T03:57:52.285Z,0.00
2018-12-09T03:58:52.325Z,0.00
2018-12-09T03:59:52.359Z,0.00
2018-12-09T04:00:52.394Z,0.00
2018-12-09T04:01:52.434Z,0.00
2018-12-09T04:02:52.471Z,0.00
2018-12-09T04:03:52.510Z,0.00
2018-12-09T04:04:52.543Z,0.00
2018-12-09T04:05:52.579Z,0.00
2018-12-09T04:06:52.617Z,0.00
2018-12-09T04:07:52.655Z,0.00
2018-12-09T04:08:52.693Z,0.00
2018-12-09T04:09:52.727Z,0.00
2018-12-09T04:10:52.818Z,0.00
2018-12-09T04:11:52.798Z,0.00
2018-12-09T04:12:52.836Z,0.00
2018-12-09T04:13:52.873Z,0.00
2018-12-09T04:14:52.914Z,0.00
2018-12-09T04:15:52.963Z,0.00
2018-12-09T04:16:52.998Z,0.00
2018-12-09T04:17:53.021Z,0.00
2018-12-09T04:18:53.057Z,0.00
2018-12-09T04:19:53.094Z,0.00
2018-12-09T04:20:53.138Z,0.00
2018-12-09T04:21:53.166Z,0.00
2018-12-09T04:22:53.204Z,0.00
2018-12-09T04:23:53.242Z,0.00
2018-12-09T04:24:53.279Z,0.00
2018-12-09T04:25:53.315Z,0.00
2018-12-09T04:26:53.353Z,0.00
2018-12-09T04:27:53.393Z,0.00
2018-12-09T04:28:53.427Z,0.00
2018-12-09T04:29:53.463Z,0.00
2018-12-09T04:30:53.498Z,0.00
2018-12-09T04:31:53.542Z,0.00
2018-12-09T04:32:53.573Z,0.00
2018-12-09T04:33:53.608Z,0.00
2018-12-09T04:34:53.654Z,0.00
2018-12-09T04:35:53.686Z,0.00
2018-12-09T04:36:53.720Z,0.00
2018-12-09T04:37:53.758Z,0.00
2018-12-09T04:38:53.795Z,0.00
2018-12-09T04:39:53.831Z,0.00
2018-12-09T04:40:53.876Z,0.00
2018-12-09T04:41:54.053Z,0.00
2018-12-09T04:42:53.945Z,0.00
2018-12-09T04:43:53.979Z,0.00
2018-12-09T04:44:54.017Z,0.00
2018-12-09T04:45:54.053Z,0.00
2018-12-09T04:46:54.088Z,0.00
2018-12-09T04:47:54.127Z,0.00
2018-12-09T04:48:54.165Z,0.00
2018-12-09T04:49:54.201Z,0.00
2018-12-09T04:50:54.244Z,0.00
2018-12-09T04:51:54.272Z,0.00
2018-12-09T04:52:54.313Z,0.00
2018-12-09T04:53:54.351Z,0.00
2018-12-09T04:54:54.384Z,0.00
2018-12-09T04:55:54.428Z,0.00
2018-12-09T04:56:54.460Z,0.00
2018-12-09T04:57:54.509Z,0.00
2018-12-09T04:58:54.532Z,0.00
2018-12-09T04:59:54.568Z,0.00
2018-12-09T05:00:54.606Z,0.00
2018-12-09T05:01:54.646Z,0.00
2018-12-09T05:02:54.678Z,0.00
2018-12-09T05:03:54.714Z,0.00
2018-12-09T05:04:54.754Z,0.00
2018-12-09T05:05:54.791Z,0.00
2018-12-09T05:06:54.829Z,0.00
2018-12-09T05:07:54.864Z,0.00
2018-12-09T05:08:54.902Z,0.00
2018-12-09T05:09:54.940Z,0.00
2018-12-09T05:10:55.052Z,0.00
2018-12-09T05:11:55.047Z,0.00
2018-12-09T05:12:55.051Z,0.00
2018-12-09T05:13:55.088Z,0.00
2018-12-09T05:14:55.127Z,0.00
2018-12-09T05:15:55.174Z,0.00
2018-12-09T05:16:55.204Z,0.00
2018-12-09T05:17:55.235Z,0.00
2018-12-09T05:18:55.272Z,0.00
2018-12-09T05:19:55.311Z,0.00
2018-12-09T05:20:55.348Z,0.00
2018-12-09T05:21:55.432Z,0.00
2018-12-09T05:22:55.421Z,0.00
2018-12-09T05:23:55.460Z,0.00
2018-12-09T05:24:55.554Z,0.00
2018-12-09T05:25:55.530Z,0.00
2018-12-09T05:26:55.567Z,0.00
2018-12-09T05:27:55.605Z,0.00
2018-12-09T05:28:55.640Z,0.00
2018-12-09T05:29:55.729Z,0.00
2018-12-09T05:30:55.715Z,0.00
2018-12-09T05:31:55.752Z,0.00
2018-12-09T05:32:55.789Z,0.00
2018-12-09T05:33:55.827Z,0.00
2018-12-09T05:34:55.862Z,0.00
2018-12-09T05:35:55.900Z,0.00
2018-12-09T05:36:55.939Z,0.00
2018-12-09T05:37:55.975Z,0.00
2018-12-09T05:38:56.013Z,0.00
2018-12-09T05:39:56.048Z,0.00
2018-12-09T05:40:56.088Z,0.00
2018-12-09T05:41:56.121Z,0.00
2018-12-09T05:42:56.160Z,0.00
2018-12-09T05:43:56.195Z,0.00
2018-12-09T05:44:56.233Z,0.00
2018-12-09T05:45:56.269Z,0.00
2018-12-09T05:46:56.307Z,0.00
2018-12-09T05:47:56.342Z,0.00
2018-12-09T05:48:56.377Z,0.00
2018-12-09T05:49:56.417Z,0.00
2018-12-09T05:50:56.461Z,0.00
2018-12-09T05:51:56.488Z,0.00
2018-12-09T05:52:56.527Z,0.00
2018-12-09T05:53:56.670Z,0.00
2018-12-09T05:54:56.600Z,0.00
2018-12-09T05:55:56.636Z,0.00
2018-12-09T05:56:56.672Z,0.00
2018-12-09T05:57:56.710Z,0.00
2018-12-09T05:58:56.747Z,0.00
2018-12-09T05:59:56.784Z,0.00
2018-12-09T06:00:56.820Z,0.00
2018-12-09T06:01:56.858Z,0.00
2018-12-09T06:02:56.898Z,0.00
2018-12-09T06:03:56.931Z,0.00
2018-12-09T06:04:56.967Z,0.00
2018-12-09T06:05:57.005Z,0.00
2018-12-09T06:06:57.048Z,0.00
2018-12-09T06:07:57.079Z,0.00
2018-12-09T06:08:57.116Z,0.00
2018-12-09T06:09:57.152Z,0.00
2018-12-09T06:10:57.194Z,0.00
2018-12-09T06:11:57.226Z,0.00
2018-12-09T06:12:57.262Z,0.00
2018-12-09T06:13:57.301Z,0.00
2018-12-09T06:14:57.338Z,0.00
2018-12-09T06:15:57.374Z,0.00
2018-12-09T06:16:57.519Z,0.00
2018-12-09T06:17:57.449Z,0.00
2018-12-09T06:18:57.490Z,0.00
2018-12-09T06:19:57.522Z,0.00
2018-12-09T06:20:57.561Z,0.00
2018-12-09T06:21:57.596Z,0.00
2018-12-09T06:22:57.632Z,0.00
2018-12-09T06:23:57.669Z,0.00
2018-12-09T06:24:57.707Z,0.00
2018-12-09T06:25:57.744Z,0.00
2018-12-09T06:26:57.779Z,0.00
2018-12-09T06:27:57.817Z,0.00
2018-12-09T06:28:57.853Z,0.00
2018-12-09T06:29:57.890Z,0.00
2018-12-09T06:30:57.929Z,0.00
2018-12-09T06:31:57.965Z,0.00
2018-12-09T06:32:58.001Z,0.00
2018-12-09T06:33:58.038Z,0.00
2018-12-09T06:34:58.076Z,0.00
2018-12-09T06:35:58.120Z,0.00
2018-12-09T06:36:58.150Z,4.00
2018-12-09T06:37:58.187Z,0.00
2018-12-09T06:38:58.224Z,4.00
2018-12-09T06:39:58.260Z,4.00
2018-12-09T06:40:58.296Z,4.00
2018-12-09T06:41:58.334Z,4.00
2018-12-09T06:42:58.371Z,8.00
2018-12-09T06:43:58.408Z,8.00
2018-12-09T06:44:58.448Z,8.00
2018-12-09T06:45:58.482Z,8.00
2018-12-09T06:46:58.519Z,8.00
2018-12-09T06:47:58.558Z,12.00
2018-12-09T06:48:58.593Z,16.00
2018-12-09T06:49:58.631Z,16.00
2018-12-09T06:50:58.669Z,20.00
2018-12-09T06:51:58.704Z,20.00
2018-12-09T06:52:58.741Z,20.00
2018-12-09T06:53:58.779Z,24.00
2018-12-09T06:54:58.836Z,28.00
2018-12-09T06:55:58.851Z,32.00
2018-12-09T06:56:58.887Z,36.00
2018-12-09T06:57:58.926Z,36.00
2018-12-09T06:58:58.963Z,36.00
2018-12-09T06:59:58.999Z,48.00
2018-12-09T07:00:59.038Z,56.00
2018-12-09T07:01:59.075Z,64.00
2018-12-09T07:02:59.119Z,80.00
2018-12-09T07:03:59.148Z,96.00
2018-12-09T07:04:59.185Z,116.00
2018-12-09T07:05:59.222Z,136.00
2018-12-09T07:06:59.259Z,148.00
2018-12-09T07:07:59.295Z,156.00
2018-12-09T07:08:59.333Z,156.00
2018-12-09T07:09:59.371Z,160.00
2018-12-09T07:10:59.406Z,184.00
2018-12-09T07:11:59.443Z,184.00
2018-12-09T07:12:59.491Z,172.00
2018-12-09T07:13:59.519Z,156.00
2018-12-09T07:14:59.556Z,148.00
2018-12-09T07:15:59.592Z,160.00
2018-12-09T07:16:59.730Z,156.00
2018-12-09T07:17:59.668Z,160.00
2018-12-09T07:18:59.705Z,176.00
2018-12-09T07:19:59.741Z,188.00
2018-12-09T07:20:59.777Z,176.00
2018-12-09T07:21:59.815Z,152.00
2018-12-09T07:22:59.854Z,160.00
2018-12-09T07:23:59.889Z,176.00
2018-12-09T07:24:59.927Z,184.00
2018-12-09T07:25:59.963Z,192.00
2018-12-09T07:27:00.001Z,204.00
2018-12-09T07:28:00.039Z,216.00
2018-12-09T07:29:00.083Z,224.00
2018-12-09T07:30:02.498Z,176.00
2018-12-09T07:31:00.159Z,168.00
2018-12-09T07:32:00.187Z,188.00
2018-12-09T07:33:00.224Z,220.00
2018-12-09T07:34:00.261Z,268.00
2018-12-09T07:35:00.298Z,340.00
2018-12-09T07:36:00.342Z,420.00
2018-12-09T07:37:00.373Z,476.00
2018-12-09T07:38:00.410Z,532.00
2018-12-09T07:39:00.448Z,584.00
2018-12-09T07:40:00.482Z,676.00
2018-12-09T07:41:00.520Z,740.00
2018-12-09T07:42:00.560Z,808.00
2018-12-09T07:43:00.593Z,820.00
2018-12-09T07:44:00.630Z,772.00
2018-12-09T07:45:00.668Z,720.00
2018-12-09T07:46:00.705Z,704.00
2018-12-09T07:47:00.744Z,716.00
2018-12-09T07:48:00.779Z,752.00
2018-12-09T07:49:00.819Z,796.00
2018-12-09T07:50:00.862Z,824.00
2018-12-09T07:51:00.893Z,884.00
2018-12-09T07:52:00.930Z,948.00
2018-12-09T07:53:00.967Z,1032.00
2018-12-09T07:54:01.065Z,1056.00
2018-12-09T07:55:01.043Z,1036.00
2018-12-09T07:56:01.078Z,1012.00
2018-12-09T07:57:01.114Z,944.00
2018-12-09T07:58:01.153Z,868.00
2018-12-09T07:59:01.188Z,752.00
2018-12-09T08:00:01.229Z,620.00
2018-12-09T08:01:01.261Z,512.00
2018-12-09T08:02:01.298Z,460.00
2018-12-09T08:03:01.344Z,444.00
2018-12-09T08:04:01.374Z,396.00
2018-12-09T08:05:01.420Z,384.00
2018-12-09T08:06:01.449Z,420.00
2018-12-09T08:07:01.486Z,504.00
2018-12-09T08:08:01.522Z,572.00
2018-12-09T08:09:01.559Z,616.00
2018-12-09T08:10:01.595Z,636.00
2018-12-09T08:11:01.634Z,700.00
2018-12-09T08:12:01.682Z,752.00
2018-12-09T08:13:01.707Z,900.00
2018-12-09T08:14:01.745Z,1176.00
2018-12-09T08:15:01.780Z,1392.00
2018-12-09T08:16:01.818Z,1500.00
2018-12-09T08:17:01.858Z,1548.00
2018-12-09T08:18:01.894Z,1468.00
2018-12-09T08:19:01.929Z,1528.00
2018-12-09T08:20:01.966Z,1556.00
2018-12-09T08:21:02.023Z,1536.00
2018-12-09T08:22:02.046Z,1612.00
2018-12-09T08:23:02.077Z,1688.00
2018-12-09T08:24:02.123Z,1648.00
2018-12-09T08:25:02.159Z,1612.00
2018-12-09T08:26:02.188Z,1548.00
2018-12-09T08:27:02.229Z,1496.00
2018-12-09T08:28:02.262Z,1416.00
2018-12-09T08:29:02.316Z,1336.00
2018-12-09T08:30:02.341Z,1276.00
2018-12-09T08:31:02.374Z,1308.00
2018-12-09T08:32:02.411Z,1396.00
2018-12-09T08:33:02.449Z,1460.00
2018-12-09T08:34:02.486Z,1536.00
2018-12-09T08:35:02.610Z,1712.00
2018-12-09T08:36:02.559Z,1768.00
2018-12-09T08:37:02.608Z,1860.00
2018-12-09T08:38:02.636Z,1904.00
2018-12-09T08:39:02.674Z,1988.00
2018-12-09T08:40:02.718Z,2104.00
2018-12-09T08:41:02.755Z,2212.00
2018-12-09T08:42:02.791Z,2356.00
2018-12-09T08:43:02.820Z,2464.00
2018-12-09T08:44:02.858Z,2544.00
2018-12-09T08:45:02.895Z,2516.00
2018-12-09T08:46:02.931Z,2512.00
2018-12-09T08:47:02.979Z,2448.00
2018-12-09T08:48:03.006Z,2380.00
2018-12-09T08:49:03.042Z,2428.00
2018-12-09T08:50:03.080Z,2460.00
2018-12-09T08:51:03.120Z,2428.00
2018-12-09T08:52:03.154Z,2380.00
2018-12-09T08:53:03.196Z,2372.00
2018-12-09T08:54:03.285Z,2308.00
2018-12-09T08:55:03.274Z,2012.00
2018-12-09T08:56:03.305Z,1928.00
2018-12-09T08:57:03.343Z,2008.00
2018-12-09T08:58:03.383Z,2076.00
2018-12-09T08:59:03.418Z,2040.00
2018-12-09T09:00:03.455Z,1960.00
2018-12-09T09:01:03.642Z,1996.00
2018-12-09T09:02:03.531Z,2012.00
2018-12-09T09:03:03.572Z,2020.00
2018-12-09T09:04:03.605Z,2048.00
2018-12-09T09:05:03.656Z,2188.00
2018-12-09T09:06:03.678Z,2424.00
2018-12-09T09:07:03.715Z,2552.00
2018-12-09T09:08:03.752Z,2592.00
2018-12-09T09:09:03.789Z,2632.00
2018-12-09T09:10:03.828Z,2712.00
2018-12-09T09:11:03.873Z,2796.00
2018-12-09T09:12:03.903Z,2872.00
2018-12-09T09:13:03.941Z,2816.00
2018-12-09T09:14:03.981Z,2784.00
2018-12-09T09:15:04.015Z,2760.00
2018-12-09T09:16:04.056Z,2772.00
2018-12-09T09:17:04.089Z,2816.00
2018-12-09T09:18:04.134Z,2828.00
2018-12-09T09:19:04.166Z,2932.00
2018-12-09T09:20:04.203Z,2944.00
2018-12-09T09:21:04.249Z,2972.00
2018-12-09T09:22:04.277Z,2912.00
2018-12-09T09:23:04.317Z,3028.00
2018-12-09T09:24:04.351Z,3004.00
2018-12-09T09:25:04.574Z,2928.00
2018-12-09T09:26:04.448Z,2940.00
2018-12-09T09:27:04.475Z,2904.00
2018-12-09T09:28:04.590Z,2888.00
2018-12-09T09:29:04.545Z,2796.00
2018-12-09T09:30:04.866Z,2740.00
2018-12-09T09:31:04.642Z,2760.00
2018-12-09T09:32:04.821Z,2648.00
2018-12-09T09:33:05.089Z,2760.00
2018-12-09T09:34:04.738Z,3028.00
2018-12-09T09:35:04.771Z,2964.00
2018-12-09T09:36:04.805Z,2960.00
2018-12-09T09:37:04.845Z,2980.00
2018-12-09T09:38:04.879Z,2832.00
2018-12-09T09:39:04.924Z,2868.00
2018-12-09T09:40:04.954Z,2856.00
2018-12-09T09:41:04.990Z,2644.00
2018-12-09T09:42:05.038Z,2724.00
2018-12-09T09:43:05.066Z,2476.00
2018-12-09T09:44:05.104Z,2352.00
2018-12-09T09:45:05.141Z,2624.00
2018-12-09T09:46:05.183Z,2728.00
2018-12-09T09:47:05.216Z,2812.00
2018-12-09T09:48:05.255Z,2628.00
2018-12-09T09:49:05.294Z,2292.00
2018-12-09T09:50:05.338Z,2156.00
2018-12-09T09:51:05.369Z,2280.00
2018-12-09T09:52:05.404Z,2252.00
2018-12-09T09:53:05.443Z,2240.00
2018-12-09T09:54:05.483Z,2432.00
2018-12-09T09:55:05.520Z,2548.00
2018-12-09T09:56:05.555Z,2704.00
2018-12-09T09:57:05.602Z,3068.00
2018-12-09T09:58:05.632Z,2916.00
2018-12-09T09:59:05.678Z,3116.00
2018-12-09T10:00:05.711Z,3848.00
2018-12-09T10:01:05.746Z,3908.00
2018-12-09T10:02:05.787Z,3572.00
2018-12-09T10:03:05.822Z,3360.00
2018-12-09T10:04:05.864Z,3204.00
2018-12-09T10:05:05.903Z,3320.00
2018-12-09T10:06:06.133Z,3032.00
2018-12-09T10:07:05.971Z,2896.00
2018-12-09T10:08:06.022Z,3156.00
2018-12-09T10:09:06.052Z,3568.00
2018-12-09T10:10:06.089Z,3600.00
2018-12-09T10:11:06.125Z,3648.00
2018-12-09T10:12:06.167Z,3676.00
2018-12-09T10:13:06.198Z,4212.00
2018-12-09T10:14:06.240Z,4604.00
2018-12-09T10:15:06.280Z,4664.00
2018-12-09T10:16:06.315Z,4760.00
2018-12-09T10:17:06.354Z,4468.00
2018-12-09T10:18:06.447Z,4468.00
2018-12-09T10:19:06.435Z,4348.00
2018-12-09T10:20:06.464Z,3904.00
2018-12-09T10:21:06.510Z,3984.00
2018-12-09T10:22:06.550Z,4284.00
2018-12-09T10:23:06.790Z,4920.00
2018-12-09T10:24:06.788Z,4988.00
2018-12-09T10:25:07.031Z,4844.00
2018-12-09T10:26:06.820Z,5188.00
2018-12-09T10:27:06.745Z,6296.00
2018-12-09T10:28:06.931Z,6488.00
2018-12-09T10:29:06.810Z,5628.00
2018-12-09T10:30:06.849Z,4452.00
2018-12-09T10:31:06.882Z,3904.00
2018-12-09T10:32:06.920Z,4428.00
2018-12-09T10:33:06.957Z,4864.00
2018-12-09T10:34:06.998Z,5472.00
2018-12-09T10:35:07.047Z,6248.00
2018-12-09T10:36:07.081Z,6564.00
2018-12-09T10:37:07.111Z,6592.00
2018-12-09T10:38:07.207Z,5768.00
2018-12-09T10:39:07.196Z,5444.00
2018-12-09T10:40:07.224Z,5048.00
2018-12-09T10:41:07.264Z,4492.00
2018-12-09T10:42:07.303Z,4064.00
2018-12-09T10:43:07.340Z,4212.00
2018-12-09T10:44:07.411Z,4204.00
2018-12-09T10:45:07.418Z,3984.00
2018-12-09T10:46:07.465Z,3344.00
2018-12-09T10:47:07.499Z,3192.00
2018-12-09T10:48:07.535Z,3552.00
2018-12-09T10:49:07.581Z,3932.00
2018-12-09T10:50:07.617Z,4348.00
2018-12-09T10:51:07.650Z,4320.00
2018-12-09T10:52:07.694Z,4436.00
2018-12-09T10:53:07.735Z,4496.00
2018-12-09T10:54:07.766Z,4216.00
2018-12-09T10:55:07.810Z,4268.00
2018-12-09T10:56:07.842Z,4600.00
2018-12-09T10:57:07.876Z,4576.00
2018-12-09T10:58:07.922Z,4312.00
2018-12-09T10:59:07.957Z,4180.00
2018-12-09T11:00:07.996Z,4712.00
2018-12-09T11:01:08.042Z,5076.00
2018-12-09T11:02:08.075Z,5288.00
2018-12-09T11:03:08.118Z,4836.00
2018-12-09T11:04:08.151Z,4684.00
2018-12-09T11:05:08.184Z,3740.00
2018-12-09T11:06:08.225Z,3364.00
2018-12-09T11:07:08.265Z,3444.00
2018-12-09T11:08:08.313Z,3320.00
2018-12-09T11:09:08.340Z,3376.00
2018-12-09T11:10:08.387Z,3352.00
2018-12-09T11:11:08.557Z,3088.00
2018-12-09T11:12:08.458Z,2324.00
2018-12-09T11:13:08.516Z,1852.00
2018-12-09T11:14:08.531Z,1760.00
2018-12-09T11:15:08.567Z,1732.00
2018-12-09T11:16:08.610Z,1660.00
2018-12-09T11:17:08.654Z,1588.00
2018-12-09T11:18:08.684Z,1548.00
2018-12-09T11:19:08.738Z,1520.00
2018-12-09T11:20:08.761Z,1416.00
2018-12-09T11:21:08.805Z,1420.00
2018-12-09T11:22:08.840Z,1468.00
2018-12-09T11:23:08.976Z,1600.00
2018-12-09T11:24:08.935Z,1716.00
2018-12-09T11:25:08.959Z,1708.00
2018-12-09T11:26:08.990Z,1700.00
2018-12-09T11:27:09.039Z,1716.00
2018-12-09T11:28:09.081Z,1760.00
2018-12-09T11:29:09.107Z,1700.00
2018-12-09T11:30:09.151Z,1332.00
2018-12-09T11:31:09.206Z,992.00
2018-12-09T11:32:09.220Z,616.00
2018-12-09T11:33:09.257Z,480.00
2018-12-09T11:34:09.294Z,620.00
2018-12-09T11:35:09.350Z,664.00
2018-12-09T11:36:09.371Z,660.00
2018-12-09T11:37:09.409Z,652.00
2018-12-09T11:38:09.450Z,680.00
2018-12-09T11:39:09.553Z,736.00
2018-12-09T11:40:09.522Z,840.00
2018-12-09T11:41:09.562Z,960.00
2018-12-09T11:42:09.610Z,1084.00
2018-12-09T11:43:09.638Z,1252.00
2018-12-09T11:44:09.686Z,1228.00
2018-12-09T11:45:09.716Z,1136.00
2018-12-09T11:46:09.843Z,1068.00
2018-12-09T11:47:09.992Z,1188.00
2018-12-09T11:48:09.839Z,1192.00
2018-12-09T11:49:09.943Z,1104.00
2018-12-09T11:50:09.910Z,920.00
2018-12-09T11:51:09.959Z,868.00
2018-12-09T11:52:10.034Z,924.00
2018-12-09T11:53:10.067Z,1128.00
2018-12-09T11:54:10.049Z,1396.00
2018-12-09T11:55:10.146Z,1488.00
2018-12-09T11:56:10.160Z,1584.00
2018-12-09T11:57:10.169Z,1756.00
2018-12-09T11:58:10.203Z,1952.00
2018-12-09T11:59:11.973Z,1840.00
2018-12-09T12:00:10.332Z,1600.00
2018-12-09T12:01:10.322Z,1528.00
2018-12-09T12:02:10.353Z,1440.00
2018-12-09T12:03:10.400Z,1312.00
2018-12-09T12:04:10.427Z,1348.00
2018-12-09T12:05:10.459Z,1324.00
2018-12-09T12:06:10.497Z,1280.00
2018-12-09T12:07:10.542Z,1176.00
2018-12-09T12:08:10.563Z,1012.00
2018-12-09T12:09:10.602Z,816.00
2018-12-09T12:10:10.643Z,736.00
2018-12-09T12:11:10.693Z,784.00
2018-12-09T12:12:10.718Z,840.00
2018-12-09T12:13:10.744Z,980.00
2018-12-09T12:14:10.791Z,1188.00
2018-12-09T12:15:10.820Z,1432.00
2018-12-09T12:16:10.854Z,1644.00
2018-12-09T12:17:10.894Z,1860.00
2018-12-09T12:18:10.940Z,2112.00
2018-12-09T12:19:10.968Z,2240.00
2018-12-09T12:20:11.002Z,2116.00
2018-12-09T12:21:11.039Z,1812.00
2018-12-09T12:22:11.073Z,1412.00
2018-12-09T12:23:11.110Z,1140.00
2018-12-09T12:24:11.159Z,1088.00
2018-12-09T12:25:11.186Z,1260.00
2018-12-09T12:26:11.221Z,1560.00
2018-12-09T12:27:11.255Z,1844.00
2018-12-09T12:28:11.294Z,2040.00
2018-12-09T12:29:11.336Z,2176.00
2018-12-09T12:30:11.423Z,2212.00
2018-12-09T12:31:11.479Z,1960.00
2018-12-09T12:32:11.438Z,1732.00
2018-12-09T12:33:11.475Z,1560.00
2018-12-09T12:34:11.509Z,1424.00
2018-12-09T12:35:11.555Z,1352.00
2018-12-09T12:36:11.588Z,1336.00
2018-12-09T12:37:11.842Z,1316.00
2018-12-09T12:38:11.682Z,1264.00
2018-12-09T12:39:11.699Z,1312.00
2018-12-09T12:40:11.743Z,1356.00
2018-12-09T12:41:11.765Z,1392.00
2018-12-09T12:42:12.051Z,1292.00
2018-12-09T12:43:11.837Z,1100.00
2018-12-09T12:44:11.872Z,1120.00
2018-12-09T12:45:11.911Z,1048.00
2018-12-09T12:46:11.954Z,1032.00
2018-12-09T12:47:11.984Z,912.00